METAR UND TAF INFORMATION
OMDB 192100Z 26005KT 170V320 9999 FEW030 20/13 Q1013 NOSIG

 FLUGHAFENKARTE

 RUNWAY INFORMATION
Runway 12L Runway length 13124 ft Runway width 197 ft
Runway elevation 13 ft Runway displaced threshold 1312 ft Runway heading 122
Runway 30R Runway length 13124 ft Runway width 197 ft
Runway elevation 34 ft Runway displaced threshold 0 ft Runway heading 302
Runway 12R Runway length 13124 ft Runway width 151 ft
Runway elevation 13 ft Runway displaced threshold 394 ft Runway heading 121
Runway 30L Runway length 13124 ft Runway width 151 ft
Runway elevation 34 ft Runway displaced threshold 2953 ft Runway heading 301

 AIRPORT FREQUENCIES
Type ARR Name ARR Frequency 124.9 MHZ
Type ATIS Name ATIS Frequency 131.7 MHZ
Type DEP Name DEP Frequency 124.45 MHZ
Type GND Name GND Frequency 118.35 MHZ
Type TWR Name TWR Frequency 118.75 MHZ

 AIRPORT NEAR NAVIGATION AIDS
Type VOR-DME Name Dubai Frequency 115700 KHZ